createdAt,value
2022-12-23T00:02:24.133Z,0.55
2022-12-23T00:07:46.264Z,0.50
2022-12-23T00:13:28.438Z,0.54
2022-12-23T00:18:50.913Z,0.53
2022-12-23T00:24:13.483Z,0.47
2022-12-23T00:29:35.375Z,0.53
2022-12-23T00:34:57.886Z,0.62
2022-12-23T00:40:38.705Z,0.59
2022-12-23T00:46:01.222Z,0.61
2022-12-23T00:51:23.374Z,0.69
2022-12-23T00:56:46.163Z,0.58
2022-12-23T01:02:28.720Z,0.56
2022-12-23T01:07:51.176Z,0.55
2022-12-23T01:13:13.120Z,0.64
2022-12-23T01:18:35.939Z,0.67
2022-12-23T01:23:58.537Z,0.58
2022-12-23T01:29:20.902Z,0.56
2022-12-23T01:35:05.137Z,0.65
2022-12-23T01:40:27.329Z,0.52
2022-12-23T01:45:50.140Z,0.67
2022-12-23T01:51:24.764Z,0.63
2022-12-23T01:56:47.125Z,0.64
2022-12-23T02:02:28.376Z,0.61
2022-12-23T02:08:11.150Z,0.67
2022-12-23T02:14:28.382Z,0.55
2022-12-23T02:20:00.988Z,0.68
2022-12-23T02:25:32.247Z,0.69
2022-12-23T02:31:10.132Z,0.58
2022-12-23T02:36:46.955Z,0.63
2022-12-23T02:42:16.870Z,0.61
2022-12-23T02:47:49.587Z,0.58
2022-12-23T02:53:28.052Z,0.50
2022-12-23T02:59:02.455Z,0.61
2022-12-23T03:04:25.552Z,0.49
2022-12-23T03:10:06.551Z,0.62
2022-12-23T03:15:58.487Z,0.60
2022-12-23T03:21:36.464Z,0.65
2022-12-23T03:27:16.982Z,0.63
2022-12-23T03:33:03.740Z,0.54
2022-12-23T03:38:26.990Z,0.54
2022-12-23T03:43:55.824Z,0.60
2022-12-23T03:49:28.443Z,0.54
2022-12-23T03:55:00.220Z,0.43
2022-12-23T04:00:21.815Z,0.51
2022-12-23T04:05:50.745Z,0.52
2022-12-23T04:11:13.373Z,0.52
2022-12-23T04:16:35.886Z,0.53
2022-12-23T04:21:58.437Z,0.55
2022-12-23T04:27:20.811Z,0.53
2022-12-23T04:32:43.374Z,0.53
2022-12-23T04:38:05.732Z,0.53
2022-12-23T04:43:27.913Z,0.49
2022-12-23T04:48:50.254Z,0.47
2022-12-23T04:54:12.297Z,0.44
2022-12-23T04:59:35.074Z,0.53
2022-12-23T05:04:57.112Z,0.40
2022-12-23T05:10:19.244Z,0.40
2022-12-23T05:15:43.668Z,0.47
2022-12-23T05:21:06.135Z,0.42
2022-12-23T05:26:28.258Z,0.47
2022-12-23T05:31:50.769Z,0.45
2022-12-23T05:37:12.997Z,0.44
2022-12-23T05:42:35.444Z,0.54
2022-12-23T05:47:58.150Z,0.55
2022-12-23T05:53:22.885Z,0.51
2022-12-23T05:58:44.874Z,0.59
2022-12-23T06:04:07.215Z,0.53
2022-12-23T06:09:29.693Z,0.49
2022-12-23T06:14:53.227Z,0.58
2022-12-23T06:20:20.461Z,0.62
2022-12-23T06:25:43.110Z,0.58
2022-12-23T06:31:05.529Z,0.53
2022-12-23T06:36:27.828Z,0.53
2022-12-23T06:41:50.074Z,0.59
2022-12-23T06:47:12.273Z,0.64
2022-12-23T06:52:34.120Z,0.71
2022-12-23T06:57:56.012Z,0.69
2022-12-23T07:03:18.137Z,0.68
2022-12-23T07:08:40.147Z,0.70
2022-12-23T07:14:02.043Z,0.76
2022-12-23T07:19:24.678Z,0.69
2022-12-23T07:24:46.566Z,0.68
2022-12-23T07:30:09.400Z,0.68
2022-12-23T07:35:31.953Z,0.56
2022-12-23T07:40:54.040Z,0.59
2022-12-23T07:46:16.181Z,0.56
2022-12-23T07:51:38.526Z,0.60
2022-12-23T07:57:00.782Z,0.67
2022-12-23T08:02:25.842Z,0.63
2022-12-23T08:07:50.556Z,0.69
2022-12-23T08:13:12.699Z,0.70
2022-12-23T08:18:37.688Z,0.69
2022-12-23T08:24:00.551Z,0.79
2022-12-23T08:29:22.698Z,0.70
2022-12-23T08:34:53.609Z,0.69
2022-12-23T08:40:16.931Z,0.90
2022-12-23T08:45:39.742Z,0.80
2022-12-23T08:51:13.549Z,0.88
2022-12-23T08:56:39.882Z,1.00
2022-12-23T09:02:02.560Z,0.92
2022-12-23T09:07:24.543Z,0.92
2022-12-23T09:12:46.905Z,0.94
2022-12-23T09:18:11.756Z,0.89
2022-12-23T09:23:34.946Z,0.95
2022-12-23T09:28:58.422Z,0.94
2022-12-23T09:34:20.960Z,0.93
2022-12-23T09:39:43.343Z,0.94
2022-12-23T09:45:17.687Z,0.87
2022-12-23T09:50:41.923Z,0.88
2022-12-23T09:56:16.449Z,0.83
2022-12-23T10:02:13.132Z,0.76
2022-12-23T10:07:49.361Z,0.80
2022-12-23T10:13:28.421Z,0.62
2022-12-23T10:19:02.591Z,0.86
2022-12-23T10:24:29.083Z,0.58
2022-12-23T10:29:52.021Z,0.58
2022-12-23T10:35:50.209Z,0.80
2022-12-23T10:41:33.933Z,0.80
2022-12-23T10:47:29.936Z,0.77
2022-12-23T11:40:39.054Z,-0.02
2022-12-23T11:46:30.019Z,0.23
2022-12-23T11:52:11.414Z,0.23
2022-12-23T11:57:41.462Z,0.44
2022-12-23T12:03:08.872Z,0.37
2022-12-23T12:08:41.893Z,0.54
2022-12-23T12:14:51.282Z,0.56
2022-12-23T12:26:40.235Z,0.50
2022-12-23T12:32:15.023Z,0.61
2022-12-23T12:37:40.609Z,0.53
2022-12-23T12:43:13.094Z,0.60
2022-12-23T12:48:45.842Z,0.61
2022-12-23T12:54:44.891Z,0.53
2022-12-23T13:00:15.157Z,0.54
2022-12-23T13:05:59.016Z,0.50
2022-12-23T13:11:45.809Z,0.63
2022-12-23T13:17:24.353Z,0.65
2022-12-23T13:22:49.881Z,0.54
2022-12-23T13:28:53.001Z,0.64
2022-12-23T13:34:55.352Z,0.62
2022-12-23T13:40:44.040Z,0.59
2022-12-23T13:46:12.708Z,0.58
2022-12-23T13:52:19.623Z,0.64
2022-12-23T13:58:22.577Z,0.65
2022-12-23T14:03:45.437Z,0.63
2022-12-23T14:09:07.433Z,0.61
2022-12-23T14:14:30.035Z,0.49
2022-12-23T14:20:05.521Z,0.67
2022-12-23T14:25:36.112Z,0.64
2022-12-23T14:30:59.335Z,0.60
2022-12-23T14:36:26.644Z,0.64
2022-12-23T14:41:53.811Z,0.64
2022-12-23T14:47:40.549Z,0.64
2022-12-23T14:53:21.930Z,0.68
2022-12-23T14:58:46.984Z,0.66
2022-12-23T15:04:14.954Z,0.64
2022-12-23T15:09:40.898Z,0.59
2022-12-23T15:15:16.914Z,0.66
2022-12-23T15:20:38.999Z,0.69
2022-12-23T15:26:02.037Z,0.61
2022-12-23T15:31:36.466Z,0.57
2022-12-23T15:37:00.009Z,0.54
2022-12-23T15:42:35.980Z,0.64
2022-12-23T15:47:58.366Z,0.57
2022-12-23T15:53:21.488Z,0.68
2022-12-23T15:58:43.787Z,0.59
2022-12-23T16:04:07.478Z,0.68
2022-12-23T16:09:36.297Z,0.69
2022-12-23T16:15:03.431Z,0.77
2022-12-23T16:20:27.407Z,0.77
2022-12-23T16:25:52.181Z,0.76
2022-12-23T16:31:18.712Z,0.73
2022-12-23T16:36:52.753Z,0.76
2022-12-23T16:42:49.114Z,0.82
2022-12-23T16:48:31.898Z,0.79
2022-12-23T16:53:57.525Z,0.84
2022-12-23T16:59:20.528Z,0.85
2022-12-23T17:04:42.479Z,0.85
2022-12-23T17:10:04.951Z,0.86
2022-12-23T17:15:27.195Z,0.88
2022-12-23T17:20:50.156Z,0.84
2022-12-23T17:26:12.234Z,0.86
2022-12-23T17:31:38.336Z,0.91
2022-12-23T17:37:05.058Z,0.77
2022-12-23T17:42:36.203Z,0.91
2022-12-23T17:47:58.613Z,0.91
2022-12-23T17:53:20.835Z,0.76
2022-12-23T17:58:45.143Z,0.98
2022-12-23T18:04:11.150Z,0.84
2022-12-23T18:09:33.553Z,0.72
2022-12-23T18:14:56.944Z,0.80
2022-12-23T18:20:22.299Z,0.90
2022-12-23T18:25:44.821Z,0.78
2022-12-23T18:31:07.157Z,0.77
2022-12-23T18:36:34.275Z,0.93
2022-12-23T18:41:56.350Z,0.92
2022-12-23T18:47:18.602Z,0.97
2022-12-23T18:52:40.583Z,0.82
2022-12-23T18:58:02.973Z,0.97
2022-12-23T19:03:28.427Z,0.98
2022-12-23T19:08:50.581Z,0.95
2022-12-23T19:14:13.028Z,0.87
2022-12-23T19:19:35.316Z,0.81
2022-12-23T19:25:05.955Z,0.94
2022-12-23T19:30:29.189Z,0.91
2022-12-23T19:35:51.523Z,0.93
2022-12-23T19:41:13.804Z,0.94
2022-12-23T19:46:36.853Z,0.96
2022-12-23T19:51:59.323Z,0.91
2022-12-23T19:57:21.703Z,0.91
2022-12-23T20:02:43.937Z,0.90
2022-12-23T20:08:06.505Z,0.85
2022-12-23T20:13:28.595Z,0.86
2022-12-23T20:18:50.956Z,0.90
2022-12-23T20:24:14.883Z,0.89
2022-12-23T20:29:36.864Z,0.91
2022-12-23T20:34:58.937Z,1.03
2022-12-23T20:40:20.722Z,0.91
2022-12-23T20:45:44.248Z,0.97
2022-12-23T20:51:12.456Z,1.03
2022-12-23T20:56:34.369Z,0.95
2022-12-23T21:02:02.180Z,1.03
2022-12-23T21:07:26.785Z,0.96
2022-12-23T21:12:48.966Z,0.96
2022-12-23T21:18:10.952Z,0.96
2022-12-23T21:23:36.769Z,0.98
2022-12-23T21:29:01.039Z,0.91
2022-12-23T21:34:23.551Z,1.00
2022-12-23T21:39:45.256Z,0.91
2022-12-23T21:45:07.717Z,0.84
2022-12-23T21:50:30.281Z,0.80
2022-12-23T21:55:52.033Z,0.83
2022-12-23T22:01:20.349Z,0.85
2022-12-23T22:06:44.776Z,0.93
2022-12-23T22:12:07.175Z,0.92
2022-12-23T22:17:28.896Z,0.88
2022-12-23T22:22:51.151Z,0.79
2022-12-23T22:28:13.241Z,0.88
2022-12-23T22:33:35.733Z,0.96
2022-12-23T22:38:59.913Z,0.94
2022-12-23T22:44:22.247Z,1.02
2022-12-23T22:49:46.222Z,1.03
2022-12-23T22:55:08.537Z,1.02
2022-12-23T23:00:30.672Z,0.98
2022-12-23T23:06:03.421Z,1.19
2022-12-23T23:11:27.221Z,1.04
2022-12-23T23:16:49.454Z,1.15
2022-12-23T23:22:11.198Z,1.14
2022-12-23T23:27:33.118Z,1.14
2022-12-23T23:32:55.431Z,1.22
2022-12-23T23:38:17.484Z,1.24
2022-12-23T23:43:39.362Z,1.23
2022-12-23T23:49:01.537Z,1.26
2022-12-23T23:54:23.400Z,1.21
2022-12-23T23:59:45.161Z,1.21
